Terminal Aerodrome Forecast
Issued by NWS St Louis, MO

Home | Current Version | Previous Version | Text Only | Print | Product List | Glossary On
Versions: 1 2 3 4 5 6 7 8 9 10 11 12 13 14 15 16 17 18 19 20 21 22 23 24 25 26 27
405
FTUS43 KLSX 241120
TAFSTL
TAF
KSTL 241120Z 2412/2518 00000KT P6SM FEW250
     FM241600 18004KT P6SM SCT050
     FM250000 13005KT P6SM SCT250
     FM251200 VRB03KT P6SM BKN060=

USA.gov is the U.S. government's official web portal to all federal, state and local government web resources and services.